createdAt,value
2023-12-23T00:00:57.650Z,99568.78
2023-12-23T00:04:01.389Z,99565.78
2023-12-23T00:07:05.897Z,99576.59
2023-12-23T00:10:09.954Z,99581.50
2023-12-23T00:13:12.712Z,99591.19
2023-12-23T00:16:15.687Z,99591.00
2023-12-23T00:19:18.576Z,99597.41
2023-12-23T00:22:22.737Z,99600.06
2023-12-23T00:25:25.776Z,99612.38
2023-12-23T00:28:28.470Z,99617.22
2023-12-23T00:31:31.118Z,99606.81
2023-12-23T00:34:33.976Z,99614.84
2023-12-23T00:37:38.292Z,99637.59
2023-12-23T00:40:41.084Z,99626.75
2023-12-23T00:43:44.158Z,99641.09
2023-12-23T00:46:47.241Z,99642.88
2023-12-23T00:49:50.146Z,99643.06
2023-12-23T00:52:54.474Z,99642.22
2023-12-23T00:55:57.373Z,99642.81
2023-12-23T00:59:00.148Z,99652.03
2023-12-23T01:02:02.970Z,99659.34
2023-12-23T01:05:06.603Z,99659.78
2023-12-23T01:08:10.686Z,99661.78
2023-12-23T01:11:13.519Z,99668.50
2023-12-23T01:14:16.628Z,99668.03
2023-12-23T01:17:19.359Z,99669.50
2023-12-23T01:20:22.196Z,99669.59
2023-12-23T01:23:26.773Z,99659.13
2023-12-23T01:26:29.427Z,99668.31
2023-12-23T01:29:32.177Z,99671.47
2023-12-23T01:32:35.202Z,99672.25
2023-12-23T01:35:40.356Z,99674.31
2023-12-23T01:38:44.857Z,99676.06
2023-12-23T01:41:47.566Z,99678.47
2023-12-23T01:44:50.236Z,99689.44
2023-12-23T01:47:55.892Z,99684.66
2023-12-23T01:50:59.193Z,99691.53
2023-12-23T01:54:06.868Z,99696.97
2023-12-23T01:57:09.546Z,99683.13
2023-12-23T02:00:12.906Z,99689.38
2023-12-23T02:03:16.038Z,99683.81
2023-12-23T02:06:18.765Z,99687.22
2023-12-23T02:09:23.130Z,99676.66
2023-12-23T02:12:34.810Z,99670.06
2023-12-23T02:15:39.329Z,99677.44
2023-12-23T02:18:42.294Z,99682.47
2023-12-23T02:21:46.822Z,99680.34
2023-12-23T02:24:49.489Z,99673.09
2023-12-23T02:27:57.937Z,99667.03
2023-12-23T02:31:01.354Z,99661.78
2023-12-23T02:34:04.377Z,99668.66
2023-12-23T02:37:08.406Z,99677.03
2023-12-23T02:40:11.723Z,99681.25
2023-12-23T02:43:14.438Z,99681.50
2023-12-23T02:46:17.269Z,99678.31
2023-12-23T02:49:20.009Z,99671.78
2023-12-23T02:52:24.094Z,99669.78
2023-12-23T02:55:27.040Z,99658.91
2023-12-23T02:58:29.805Z,99671.22
2023-12-23T03:01:33.468Z,99663.06
2023-12-23T03:04:36.289Z,99668.91
2023-12-23T03:07:40.340Z,99678.47
2023-12-23T03:10:43.117Z,99665.69
2023-12-23T03:13:46.116Z,99665.13
2023-12-23T03:16:48.785Z,99663.16
2023-12-23T03:19:52.600Z,99682.94
2023-12-23T03:22:56.730Z,99689.81
2023-12-23T03:25:59.472Z,99686.56
2023-12-23T03:29:02.156Z,99696.47
2023-12-23T03:32:05.587Z,99691.34
2023-12-23T03:35:08.853Z,99690.09
2023-12-23T03:38:12.953Z,99689.66
2023-12-23T03:41:16.075Z,99691.44
2023-12-23T03:44:18.871Z,99689.53
2023-12-23T03:47:21.681Z,99667.47
2023-12-23T03:50:24.570Z,99681.38
2023-12-23T03:53:28.679Z,99676.66
2023-12-23T03:56:31.341Z,99680.53
2023-12-23T03:59:34.094Z,99685.78
2023-12-23T04:02:37.179Z,99684.38
2023-12-23T04:05:39.870Z,99695.75
2023-12-23T04:08:44.769Z,99693.31
2023-12-23T04:11:47.490Z,99685.78
2023-12-23T04:14:50.139Z,99698.03
2023-12-23T04:17:52.991Z,99705.03
2023-12-23T04:20:56.034Z,99700.34
2023-12-23T04:24:00.698Z,99703.13
2023-12-23T04:27:04.251Z,99706.94
2023-12-23T04:30:08.239Z,99708.69
2023-12-23T04:33:11.688Z,99703.81
2023-12-23T04:36:14.634Z,99693.19
2023-12-23T04:39:18.683Z,99693.91
2023-12-23T04:42:21.635Z,99704.00
2023-12-23T04:45:24.440Z,99704.28
2023-12-23T04:48:27.458Z,99716.63
2023-12-23T04:51:30.126Z,99721.94
2023-12-23T04:54:34.539Z,99720.47
2023-12-23T04:57:37.636Z,99701.88
2023-12-23T05:00:40.593Z,99692.72
2023-12-23T05:03:43.403Z,99695.09
2023-12-23T05:06:46.585Z,99693.88
2023-12-23T05:09:50.746Z,99691.56
2023-12-23T05:12:53.637Z,99691.81
2023-12-23T05:15:56.601Z,99699.97
2023-12-23T05:18:59.277Z,99693.69
2023-12-23T05:22:01.934Z,99691.75
2023-12-23T05:25:06.396Z,99692.72
2023-12-23T05:28:09.029Z,99698.34
2023-12-23T05:31:11.658Z,99693.16
2023-12-23T05:34:14.699Z,99691.56
2023-12-23T05:37:17.630Z,99677.28
2023-12-23T05:40:21.606Z,99686.56
2023-12-23T05:43:24.613Z,99677.72
2023-12-23T05:46:27.691Z,99660.06
2023-12-23T05:49:30.315Z,99669.25
2023-12-23T05:52:32.938Z,99664.13
2023-12-23T05:55:37.221Z,99659.31
2023-12-23T05:58:39.958Z,99656.56
2023-12-23T06:01:42.664Z,99653.19
2023-12-23T06:04:45.786Z,99652.00
2023-12-23T06:07:48.983Z,99650.31
2023-12-23T06:10:58.030Z,99639.84
2023-12-23T06:14:01.515Z,99634.06
2023-12-23T06:17:06.435Z,99626.22
2023-12-23T06:20:10.092Z,99636.13
2023-12-23T06:23:12.887Z,99635.50
2023-12-23T06:26:17.352Z,99622.53
2023-12-23T06:29:20.153Z,99626.31
2023-12-23T06:32:23.017Z,99629.44
2023-12-23T06:35:26.045Z,99621.50
2023-12-23T06:38:28.884Z,99616.16
2023-12-23T06:41:32.903Z,99626.66
2023-12-23T06:44:36.201Z,99627.91
2023-12-23T06:47:38.916Z,99636.03
2023-12-23T06:50:41.634Z,99635.03
2023-12-23T06:53:44.352Z,99635.34
2023-12-23T06:56:48.362Z,99625.03
2023-12-23T06:59:50.987Z,99618.47
2023-12-23T07:02:53.778Z,99615.72
2023-12-23T07:05:56.856Z,99604.72
2023-12-23T07:08:59.530Z,99615.66
2023-12-23T07:12:03.826Z,99623.28
2023-12-23T07:15:07.936Z,99632.41
2023-12-23T07:18:11.861Z,99642.09
2023-12-23T07:21:14.831Z,99631.31
2023-12-23T07:24:17.689Z,99629.88
2023-12-23T07:27:21.730Z,99641.28
2023-12-23T07:30:24.463Z,99648.25
2023-12-23T07:33:27.521Z,99641.63
2023-12-23T07:36:30.671Z,99643.47
2023-12-23T07:39:33.325Z,99639.66
2023-12-23T07:42:37.418Z,99636.31
2023-12-23T07:45:40.325Z,99636.69
2023-12-23T07:48:43.057Z,99640.69
2023-12-23T07:51:45.881Z,99639.19
2023-12-23T07:54:48.668Z,99636.75
2023-12-23T07:57:52.860Z,99653.41
2023-12-23T08:00:57.150Z,99652.13
2023-12-23T08:03:59.923Z,99646.28
2023-12-23T08:07:02.646Z,99645.66
2023-12-23T08:10:06.136Z,99646.63
2023-12-23T08:13:10.176Z,99651.22
2023-12-23T08:16:12.837Z,99649.69
2023-12-23T08:19:18.308Z,99647.06
2023-12-23T08:22:22.620Z,99640.75
2023-12-23T08:25:25.704Z,99639.31
2023-12-23T08:28:29.909Z,99640.66
2023-12-23T08:31:32.601Z,99644.56
2023-12-23T08:34:35.382Z,99644.19
2023-12-23T08:37:38.251Z,99643.75
2023-12-23T08:40:41.238Z,99639.84
2023-12-23T08:43:45.431Z,99652.56
2023-12-23T08:46:48.470Z,99645.59
2023-12-23T08:49:51.127Z,99644.81
2023-12-23T08:52:53.905Z,99634.81
2023-12-23T08:55:56.811Z,99635.47
2023-12-23T08:59:00.862Z,99637.13
2023-12-23T09:02:03.734Z,99636.38
2023-12-23T09:05:07.536Z,99639.53
2023-12-23T09:08:10.532Z,99645.13
2023-12-23T09:11:13.348Z,99646.69
2023-12-23T09:14:17.867Z,99647.94
2023-12-23T09:17:20.898Z,99653.41
2023-12-23T09:20:23.837Z,99656.09
2023-12-23T09:23:27.202Z,99656.22
2023-12-23T09:26:30.099Z,99650.97
2023-12-23T09:29:34.148Z,99644.28
2023-12-23T09:32:37.092Z,99649.91
2023-12-23T09:35:40.057Z,99649.50
2023-12-23T09:38:42.711Z,99658.28
2023-12-23T09:41:48.025Z,99664.13
2023-12-23T09:44:52.355Z,99653.84
2023-12-23T09:47:55.752Z,99653.50
2023-12-23T09:50:59.048Z,99665.25
2023-12-23T09:54:06.938Z,99652.78
2023-12-23T09:57:09.829Z,99664.66
2023-12-23T10:00:15.033Z,99657.84
2023-12-23T10:03:17.788Z,99651.41
2023-12-23T10:06:22.554Z,99656.84
2023-12-23T10:09:25.512Z,99649.69
2023-12-23T10:12:28.170Z,99648.78
2023-12-23T10:15:32.234Z,99652.69
2023-12-23T10:18:35.175Z,99654.09
2023-12-23T10:21:38.035Z,99668.34
2023-12-23T10:24:41.052Z,99661.34
2023-12-23T10:27:44.818Z,99661.19
2023-12-23T10:30:50.640Z,99660.91
2023-12-23T10:33:59.427Z,99657.03
2023-12-23T10:37:02.870Z,99664.78
2023-12-23T10:40:14.036Z,99663.00
2023-12-23T10:43:18.945Z,99657.75
2023-12-23T10:46:23.468Z,99661.50
2023-12-23T10:49:26.798Z,99664.19
2023-12-23T10:52:31.726Z,99664.25
2023-12-23T10:55:35.852Z,99660.59
2023-12-23T10:58:41.705Z,99656.66
2023-12-23T11:01:47.548Z,99646.63
2023-12-23T11:04:53.377Z,99650.66
2023-12-23T11:08:04.077Z,99647.06
2023-12-23T11:11:10.481Z,99659.25
2023-12-23T11:14:13.482Z,99660.44
2023-12-23T11:17:29.604Z,99657.50
2023-12-23T11:20:46.159Z,99658.53
2023-12-23T11:23:49.370Z,99657.00
2023-12-23T11:26:54.899Z,99663.47
2023-12-23T11:30:00.392Z,99668.44
2023-12-23T11:33:05.937Z,99676.38
2023-12-23T11:36:09.484Z,99671.06
2023-12-23T11:39:14.819Z,99668.72
2023-12-23T11:42:18.209Z,99669.88
2023-12-23T11:45:21.673Z,99675.88
2023-12-23T11:48:26.269Z,99677.50
2023-12-23T11:51:29.420Z,99674.28
2023-12-23T11:54:32.487Z,99670.56
2023-12-23T11:57:35.716Z,99680.94
2023-12-23T12:00:40.011Z,99679.72
2023-12-23T12:03:44.427Z,99674.94
2023-12-23T12:06:47.093Z,99686.97
2023-12-23T12:09:50.153Z,99689.50
2023-12-23T12:12:53.228Z,99678.63
2023-12-23T12:15:56.185Z,99679.41
2023-12-23T12:19:00.644Z,99680.31
2023-12-23T12:22:03.587Z,99672.50
2023-12-23T12:25:07.381Z,99669.75
2023-12-23T12:28:10.624Z,99673.91
2023-12-23T12:31:15.960Z,99667.91
2023-12-23T12:34:20.334Z,99667.19
2023-12-23T12:37:24.565Z,99670.97
2023-12-23T12:40:27.274Z,99674.81
2023-12-23T12:43:32.829Z,99674.03
2023-12-23T12:46:37.101Z,99675.78
2023-12-23T12:49:55.714Z,99678.25
2023-12-23T12:53:06.321Z,99691.03
2023-12-23T12:56:10.365Z,99695.34
2023-12-23T12:59:13.471Z,99694.19
2023-12-23T13:02:17.193Z,99694.34
2023-12-23T13:05:22.373Z,99695.63
2023-12-23T13:08:25.332Z,99691.06
2023-12-23T13:11:29.600Z,99699.34
2023-12-23T13:14:32.585Z,99708.59
2023-12-23T13:17:35.433Z,99713.59
2023-12-23T13:20:40.480Z,99707.94
2023-12-23T13:23:43.318Z,99711.56
2023-12-23T13:26:46.538Z,99713.72
2023-12-23T13:29:49.218Z,99722.63
2023-12-23T13:32:52.806Z,99725.25
2023-12-23T13:35:56.958Z,99732.94
2023-12-23T13:38:59.935Z,99725.88
2023-12-23T13:42:02.744Z,99737.72
2023-12-23T13:45:06.028Z,99725.75
2023-12-23T13:48:09.270Z,99728.56
2023-12-23T13:51:13.970Z,99735.72
2023-12-23T13:54:16.768Z,99729.69
2023-12-23T13:57:19.824Z,99746.72
2023-12-23T14:00:22.855Z,99751.38
2023-12-23T14:03:25.581Z,99739.44
2023-12-23T14:06:30.035Z,99748.44
2023-12-23T14:09:34.787Z,99757.63
2023-12-23T14:12:37.526Z,99764.72
2023-12-23T14:15:40.622Z,99768.25
2023-12-23T14:18:43.736Z,99771.63
2023-12-23T14:21:47.822Z,99779.56
2023-12-23T14:24:50.826Z,99777.09
2023-12-23T14:27:53.844Z,99788.75
2023-12-23T14:30:56.580Z,99798.88
2023-12-23T14:33:59.599Z,99804.13
2023-12-23T14:37:03.879Z,99820.75
2023-12-23T14:40:07.917Z,99824.06
2023-12-23T14:43:11.109Z,99823.34
2023-12-23T14:46:15.526Z,99825.25
2023-12-23T14:49:18.340Z,99826.34
2023-12-23T14:52:23.075Z,99829.41
2023-12-23T14:55:26.109Z,99835.34
2023-12-23T14:58:28.931Z,99843.44
2023-12-23T15:01:35.140Z,99840.81
2023-12-23T15:04:39.531Z,99846.91
2023-12-23T15:07:43.786Z,99845.34
2023-12-23T15:10:46.434Z,99846.75
2023-12-23T15:13:49.876Z,99854.19
2023-12-23T15:16:53.080Z,99856.97
2023-12-23T15:19:55.766Z,99865.44
2023-12-23T15:22:59.852Z,99855.00
2023-12-23T15:26:02.854Z,99858.50
2023-12-23T15:29:06.334Z,99866.59
2023-12-23T15:32:09.161Z,99873.56
2023-12-23T15:35:12.057Z,99873.66
2023-12-23T15:38:16.464Z,99879.94
2023-12-23T15:41:19.295Z,99881.53
2023-12-23T15:44:22.505Z,99885.16
2023-12-23T15:47:28.129Z,99871.81
2023-12-23T15:50:31.079Z,99880.06
2023-12-23T15:53:36.023Z,99882.56
2023-12-23T15:56:40.670Z,99883.06
2023-12-23T15:59:43.660Z,99879.22
2023-12-23T16:02:46.327Z,99888.78
2023-12-23T16:05:49.109Z,99890.38
2023-12-23T16:08:53.297Z,99889.19
2023-12-23T16:11:56.123Z,99884.38
2023-12-23T16:14:58.930Z,99888.25
2023-12-23T16:18:03.000Z,99891.47
2023-12-23T16:21:06.447Z,99885.41
2023-12-23T16:24:10.646Z,99905.41
2023-12-23T16:27:13.653Z,99887.75
2023-12-23T16:30:17.436Z,99900.75
2023-12-23T16:33:20.289Z,99898.00
2023-12-23T16:36:23.445Z,99909.88
2023-12-23T16:39:27.886Z,99909.00
2023-12-23T16:42:30.950Z,99912.09
2023-12-23T16:45:33.840Z,99904.56
2023-12-23T16:48:36.972Z,99909.59
2023-12-23T16:51:40.013Z,99908.44
2023-12-23T16:54:45.537Z,99910.66
2023-12-23T16:57:48.647Z,99911.88
2023-12-23T17:00:51.744Z,99922.41
2023-12-23T17:03:55.038Z,99904.22
2023-12-23T17:06:57.790Z,99914.41
2023-12-23T17:10:02.200Z,99905.97
2023-12-23T17:13:05.384Z,99908.53
2023-12-23T17:16:08.552Z,99908.50
2023-12-23T17:19:11.378Z,99906.63
2023-12-23T17:22:14.451Z,99905.31
2023-12-23T17:25:18.435Z,99899.16
2023-12-23T17:28:21.335Z,99904.69
2023-12-23T17:31:24.426Z,99902.88
2023-12-23T17:34:27.135Z,99897.88
2023-12-23T17:37:29.877Z,99904.81
2023-12-23T17:40:34.294Z,99899.84
2023-12-23T17:43:39.119Z,99902.63
2023-12-23T17:46:43.455Z,99903.66
2023-12-23T17:49:46.201Z,99917.72
2023-12-23T17:52:49.160Z,99908.06
2023-12-23T17:55:53.877Z,99911.03
2023-12-23T17:58:57.399Z,99913.84
2023-12-23T18:02:00.932Z,99912.59
2023-12-23T18:05:04.091Z,99913.84
2023-12-23T18:08:07.550Z,99913.19
2023-12-23T18:11:12.000Z,99909.94
2023-12-23T18:14:15.530Z,99924.44
2023-12-23T18:17:18.691Z,99924.56
2023-12-23T18:20:21.585Z,99925.31
2023-12-23T18:23:24.745Z,99922.34
2023-12-23T18:26:29.356Z,99917.25
2023-12-23T18:29:32.387Z,99928.16
2023-12-23T18:32:35.454Z,99929.59
2023-12-23T18:35:38.181Z,99932.41
2023-12-23T18:38:41.036Z,99927.13
2023-12-23T18:41:45.220Z,99929.88
2023-12-23T18:44:47.884Z,99935.13
2023-12-23T18:47:50.878Z,99936.03
2023-12-23T18:50:53.718Z,99936.47
2023-12-23T18:53:56.671Z,99925.53
2023-12-23T18:57:01.540Z,99935.13
2023-12-23T19:00:05.288Z,99929.06
2023-12-23T19:03:12.994Z,99931.69
2023-12-23T19:06:16.041Z,99936.56
2023-12-23T19:09:18.668Z,99946.00
2023-12-23T19:12:24.542Z,99935.34
2023-12-23T19:15:27.197Z,99932.44
2023-12-23T19:18:30.037Z,99936.81
2023-12-23T19:21:33.431Z,99934.41
2023-12-23T19:24:36.680Z,99928.44
2023-12-23T19:27:40.738Z,99937.66
2023-12-23T19:30:44.042Z,99936.13
2023-12-23T19:33:47.087Z,99940.13
2023-12-23T19:36:50.272Z,99947.38
2023-12-23T19:39:59.797Z,99941.25
2023-12-23T19:43:11.872Z,99935.50
2023-12-23T19:46:14.921Z,99933.84
2023-12-23T19:49:18.104Z,99935.41
2023-12-23T19:52:21.247Z,99936.03
2023-12-23T19:55:24.205Z,99926.31
2023-12-23T19:58:28.182Z,99932.56
2023-12-23T20:01:31.243Z,99932.63
2023-12-23T20:04:34.293Z,99934.41
2023-12-23T20:07:36.957Z,99937.03
2023-12-23T20:10:40.555Z,99934.13
2023-12-23T20:13:45.018Z,99922.69
2023-12-23T20:16:47.714Z,99919.94
2023-12-23T20:19:50.823Z,99928.00
2023-12-23T20:22:54.023Z,99921.66
2023-12-23T20:25:56.864Z,99920.75
2023-12-23T20:29:01.440Z,99909.41
2023-12-23T20:32:05.422Z,99909.41
2023-12-23T20:35:08.889Z,99912.00
2023-12-23T20:38:11.760Z,99908.50
2023-12-23T20:41:14.552Z,99904.34
2023-12-23T20:44:19.084Z,99903.28
2023-12-23T20:47:21.893Z,99898.19
2023-12-23T20:50:24.670Z,99889.75
2023-12-23T20:53:27.400Z,99904.78
2023-12-23T20:56:30.728Z,99904.69
2023-12-23T20:59:34.833Z,99897.91
2023-12-23T21:02:37.790Z,99895.00
2023-12-23T21:05:40.684Z,99894.72
2023-12-23T21:08:43.902Z,99884.00
2023-12-23T21:11:46.883Z,99886.38
2023-12-23T21:14:51.487Z,99897.63
2023-12-23T21:17:54.661Z,99875.66
2023-12-23T21:20:57.976Z,99874.69
2023-12-23T21:24:04.809Z,99875.88
2023-12-23T21:27:07.943Z,99860.84
2023-12-23T21:30:13.137Z,99863.53
2023-12-23T21:33:16.118Z,99860.00
2023-12-23T21:36:18.950Z,99851.16
2023-12-23T21:39:21.856Z,99849.47
2023-12-23T21:42:24.981Z,99851.41
2023-12-23T21:45:29.059Z,99833.91
2023-12-23T21:48:31.907Z,99852.16
2023-12-23T21:51:35.037Z,99846.91
2023-12-23T21:54:38.163Z,99833.97
2023-12-23T21:57:40.887Z,99827.78
2023-12-23T22:00:47.052Z,99830.25
2023-12-23T22:03:50.012Z,99837.31
2023-12-23T22:06:52.782Z,99825.88
2023-12-23T22:09:56.260Z,99823.13
2023-12-23T22:12:59.158Z,99821.53
2023-12-23T22:16:03.361Z,99828.50
2023-12-23T22:19:06.422Z,99828.50
2023-12-23T22:22:09.098Z,99821.53
2023-12-23T22:25:12.010Z,99818.03
2023-12-23T22:28:15.830Z,99819.50
2023-12-23T22:31:20.157Z,99820.56
2023-12-23T22:34:22.967Z,99825.00
2023-12-23T22:37:26.124Z,99824.00
2023-12-23T22:40:28.975Z,99822.34
2023-12-23T22:43:31.792Z,99825.59
2023-12-23T22:46:38.849Z,99831.09
2023-12-23T22:49:43.093Z,99826.78
2023-12-23T22:52:46.178Z,99822.22
2023-12-23T22:55:49.379Z,99816.31
2023-12-23T22:58:52.264Z,99815.19
2023-12-23T23:01:57.039Z,99819.59
2023-12-23T23:05:00.557Z,99814.56
2023-12-23T23:08:05.070Z,99808.97
2023-12-23T23:11:08.039Z,99796.91
2023-12-23T23:14:11.206Z,99799.31
2023-12-23T23:17:15.525Z,99799.78
2023-12-23T23:20:19.200Z,99795.22
2023-12-23T23:23:22.022Z,99797.84
2023-12-23T23:26:24.972Z,99784.59
2023-12-23T23:29:28.060Z,99792.88
2023-12-23T23:32:32.353Z,99781.25
2023-12-23T23:35:35.287Z,99778.03
2023-12-23T23:38:37.973Z,99774.38
2023-12-23T23:41:40.634Z,99774.22
2023-12-23T23:44:43.356Z,99757.75
2023-12-23T23:47:47.629Z,99748.28
2023-12-23T23:50:50.691Z,99753.69
2023-12-23T23:53:54.181Z,99743.88
2023-12-23T23:56:57.381Z,99748.75
